sensor_id;sensor_type;location;lat;lon;timestamp;temperature;humidity
34985;DHT22;21190;58.750;17.004;2022-08-21T00:00:19;17.50;99.90
34985;DHT22;21190;58.750;17.004;2022-08-21T00:02:48;17.50;99.90
34985;DHT22;21190;58.750;17.004;2022-08-21T00:05:16;17.40;99.90
34985;DHT22;21190;58.750;17.004;2022-08-21T00:07:43;17.40;99.90
34985;DHT22;21190;58.750;17.004;2022-08-21T00:10:10;17.40;99.90
34985;DHT22;21190;58.750;17.004;2022-08-21T00:12:37;17.40;99.90
34985;DHT22;21190;58.750;17.004;2022-08-21T00:15:05;17.40;99.90
34985;DHT22;21190;58.750;17.004;2022-08-21T00:17:34;17.30;99.90
34985;DHT22;21190;58.750;17.004;2022-08-21T00:20:03;17.30;99.90
34985;DHT22;21190;58.750;17.004;2022-08-21T00:22:30;17.20;99.90
34985;DHT22;21190;58.750;17.004;2022-08-21T00:24:57;17.00;99.90
34985;DHT22;21190;58.750;17.004;2022-08-21T00:27:24;16.90;99.90
34985;DHT22;21190;58.750;17.004;2022-08-21T00:29:51;16.90;99.90
34985;DHT22;21190;58.750;17.004;2022-08-21T00:32:23;16.70;99.90
34985;DHT22;21190;58.750;17.004;2022-08-21T00:34:50;16.70;99.90
34985;DHT22;21190;58.750;17.004;2022-08-21T00:37:17;16.70;99.90
34985;DHT22;21190;58.750;17.004;2022-08-21T00:39:44;16.50;99.90
34985;DHT22;21190;58.750;17.004;2022-08-21T00:42:11;16.60;99.90
34985;DHT22;21190;58.750;17.004;2022-08-21T00:44:42;16.60;99.90
34985;DHT22;21190;58.750;17.004;2022-08-21T00:47:09;16.70;99.90
34985;DHT22;21190;58.750;17.004;2022-08-21T00:49:37;16.70;99.90
34985;DHT22;21190;58.750;17.004;2022-08-21T00:52:05;16.80;99.90
34985;DHT22;21190;58.750;17.004;2022-08-21T00:54:33;16.80;99.90
34985;DHT22;21190;58.750;17.004;2022-08-21T00:57:02;16.90;99.90
34985;DHT22;21190;58.750;17.004;2022-08-21T00:59:32;16.80;99.90
34985;DHT22;21190;58.750;17.004;2022-08-21T01:02:00;16.80;99.90
34985;DHT22;21190;58.750;17.004;2022-08-21T01:04:27;16.80;99.90
34985;DHT22;21190;58.750;17.004;2022-08-21T01:06:54;16.60;99.90
34985;DHT22;21190;58.750;17.004;2022-08-21T01:09:21;16.40;99.90
34985;DHT22;21190;58.750;17.004;2022-08-21T01:11:48;16.50;99.90
34985;DHT22;21190;58.750;17.004;2022-08-21T01:14:15;16.40;99.90
34985;DHT22;21190;58.750;17.004;2022-08-21T01:16:44;16.40;99.90
34985;DHT22;21190;58.750;17.004;2022-08-21T01:19:12;16.40;99.90
34985;DHT22;21190;58.750;17.004;2022-08-21T01:21:40;16.50;99.90
34985;DHT22;21190;58.750;17.004;2022-08-21T01:24:09;16.40;99.90
34985;DHT22;21190;58.750;17.004;2022-08-21T01:26:36;16.40;99.90
34985;DHT22;21190;58.750;17.004;2022-08-21T01:31:49;16.50;99.90
34985;DHT22;21190;58.750;17.004;2022-08-21T01:34:16;16.50;99.90
34985;DHT22;21190;58.750;17.004;2022-08-21T01:36:43;16.50;99.90
34985;DHT22;21190;58.750;17.004;2022-08-21T01:39:11;16.40;99.90
34985;DHT22;21190;58.750;17.004;2022-08-21T01:41:38;16.40;99.90
34985;DHT22;21190;58.750;17.004;2022-08-21T01:44:05;16.40;99.90
34985;DHT22;21190;58.750;17.004;2022-08-21T01:46:32;16.50;99.90
34985;DHT22;21190;58.750;17.004;2022-08-21T01:48:59;16.50;99.90
34985;DHT22;21190;58.750;17.004;2022-08-21T01:51:26;16.40;99.90
34985;DHT22;21190;58.750;17.004;2022-08-21T01:53:53;16.50;99.90
34985;DHT22;21190;58.750;17.004;2022-08-21T01:56:20;16.50;99.90
34985;DHT22;21190;58.750;17.004;2022-08-21T01:58:47;16.50;99.90
34985;DHT22;21190;58.750;17.004;2022-08-21T02:01:14;16.50;99.90
34985;DHT22;21190;58.750;17.004;2022-08-21T02:03:41;16.50;99.90
34985;DHT22;21190;58.750;17.004;2022-08-21T02:06:11;16.40;99.90
34985;DHT22;21190;58.750;17.004;2022-08-21T02:08:39;16.40;99.90
34985;DHT22;21190;58.750;17.004;2022-08-21T02:11:07;16.30;99.90
34985;DHT22;21190;58.750;17.004;2022-08-21T02:13:34;16.20;99.90
34985;DHT22;21190;58.750;17.004;2022-08-21T02:16:01;16.20;99.90
34985;DHT22;21190;58.750;17.004;2022-08-21T02:18:27;16.10;99.90
34985;DHT22;21190;58.750;17.004;2022-08-21T02:20:54;16.20;99.90
34985;DHT22;21190;58.750;17.004;2022-08-21T02:23:23;16.10;99.90
34985;DHT22;21190;58.750;17.004;2022-08-21T02:25:54;16.00;99.90
34985;DHT22;21190;58.750;17.004;2022-08-21T02:28:21;15.90;99.90
34985;DHT22;21190;58.750;17.004;2022-08-21T02:30:48;15.90;99.90
34985;DHT22;21190;58.750;17.004;2022-08-21T02:33:15;15.90;99.90
34985;DHT22;21190;58.750;17.004;2022-08-21T02:35:43;15.70;99.90
34985;DHT22;21190;58.750;17.004;2022-08-21T02:38:11;15.70;99.90
34985;DHT22;21190;58.750;17.004;2022-08-21T02:40:39;15.70;99.90
34985;DHT22;21190;58.750;17.004;2022-08-21T02:43:13;15.70;99.90
34985;DHT22;21190;58.750;17.004;2022-08-21T02:45:42;15.70;99.90
34985;DHT22;21190;58.750;17.004;2022-08-21T02:48:10;15.70;99.90
34985;DHT22;21190;58.750;17.004;2022-08-21T02:50:41;15.60;99.90
34985;DHT22;21190;58.750;17.004;2022-08-21T02:53:08;15.50;99.90
34985;DHT22;21190;58.750;17.004;2022-08-21T02:55:36;15.40;99.90
34985;DHT22;21190;58.750;17.004;2022-08-21T02:58:04;15.40;99.90
34985;DHT22;21190;58.750;17.004;2022-08-21T03:00:31;15.40;99.90
34985;DHT22;21190;58.750;17.004;2022-08-21T03:02:59;15.30;99.90
34985;DHT22;21190;58.750;17.004;2022-08-21T03:05:26;15.40;99.90
34985;DHT22;21190;58.750;17.004;2022-08-21T03:07:53;15.40;99.90
34985;DHT22;21190;58.750;17.004;2022-08-21T03:10:21;15.40;99.90
34985;DHT22;21190;58.750;17.004;2022-08-21T03:12:48;15.40;99.90
34985;DHT22;21190;58.750;17.004;2022-08-21T03:15:17;15.40;99.90
34985;DHT22;21190;58.750;17.004;2022-08-21T03:17:44;15.40;99.90
34985;DHT22;21190;58.750;17.004;2022-08-21T03:20:12;15.30;99.90
34985;DHT22;21190;58.750;17.004;2022-08-21T03:22:40;15.40;99.90
34985;DHT22;21190;58.750;17.004;2022-08-21T03:25:12;15.40;99.90
34985;DHT22;21190;58.750;17.004;2022-08-21T03:27:39;15.20;99.90
34985;DHT22;21190;58.750;17.004;2022-08-21T03:30:09;15.30;99.90
34985;DHT22;21190;58.750;17.004;2022-08-21T03:32:36;15.30;99.90
34985;DHT22;21190;58.750;17.004;2022-08-21T03:35:03;15.30;99.90
34985;DHT22;21190;58.750;17.004;2022-08-21T03:37:31;15.20;99.90
34985;DHT22;21190;58.750;17.004;2022-08-21T03:39:58;15.20;99.90
34985;DHT22;21190;58.750;17.004;2022-08-21T03:42:25;15.20;99.90
34985;DHT22;21190;58.750;17.004;2022-08-21T03:44:52;15.20;99.90
34985;DHT22;21190;58.750;17.004;2022-08-21T03:47:19;15.30;99.90
34985;DHT22;21190;58.750;17.004;2022-08-21T03:49:46;15.10;99.90
34985;DHT22;21190;58.750;17.004;2022-08-21T03:52:13;15.10;99.90
34985;DHT22;21190;58.750;17.004;2022-08-21T03:54:39;15.20;99.90
34985;DHT22;21190;58.750;17.004;2022-08-21T03:57:08;15.20;99.90
34985;DHT22;21190;58.750;17.004;2022-08-21T03:59:36;15.20;99.90
34985;DHT22;21190;58.750;17.004;2022-08-21T04:02:04;15.20;99.90
34985;DHT22;21190;58.750;17.004;2022-08-21T04:04:31;15.20;99.90
34985;DHT22;21190;58.750;17.004;2022-08-21T04:06:59;15.20;99.90
34985;DHT22;21190;58.750;17.004;2022-08-21T04:09:26;15.20;99.90
34985;DHT22;21190;58.750;17.004;2022-08-21T04:11:53;15.20;99.90
34985;DHT22;21190;58.750;17.004;2022-08-21T04:14:20;15.20;99.90
34985;DHT22;21190;58.750;17.004;2022-08-21T04:16:48;15.20;99.90
34985;DHT22;21190;58.750;17.004;2022-08-21T04:19:15;15.20;99.90
34985;DHT22;21190;58.750;17.004;2022-08-21T04:21:42;15.20;99.90
34985;DHT22;21190;58.750;17.004;2022-08-21T04:24:09;15.30;99.90
34985;DHT22;21190;58.750;17.004;2022-08-21T04:26:37;15.20;99.90
34985;DHT22;21190;58.750;17.004;2022-08-21T04:29:04;15.20;99.90
34985;DHT22;21190;58.750;17.004;2022-08-21T04:31:35;15.10;99.90
34985;DHT22;21190;58.750;17.004;2022-08-21T04:34:05;15.10;99.90
34985;DHT22;21190;58.750;17.004;2022-08-21T04:36:32;15.10;99.90
34985;DHT22;21190;58.750;17.004;2022-08-21T04:39:00;15.10;99.90
34985;DHT22;21190;58.750;17.004;2022-08-21T04:41:29;15.20;99.90
34985;DHT22;21190;58.750;17.004;2022-08-21T04:43:56;15.20;99.90
34985;DHT22;21190;58.750;17.004;2022-08-21T04:46:23;15.10;99.90
34985;DHT22;21190;58.750;17.004;2022-08-21T04:48:50;15.20;99.90
34985;DHT22;21190;58.750;17.004;2022-08-21T04:51:24;15.20;99.90
34985;DHT22;21190;58.750;17.004;2022-08-21T04:53:57;15.20;99.90
34985;DHT22;21190;58.750;17.004;2022-08-21T04:56:35;15.20;99.90
34985;DHT22;21190;58.750;17.004;2022-08-21T04:59:04;15.30;99.90
34985;DHT22;21190;58.750;17.004;2022-08-21T05:01:32;15.30;99.90
34985;DHT22;21190;58.750;17.004;2022-08-21T05:04:02;15.40;99.90
34985;DHT22;21190;58.750;17.004;2022-08-21T05:06:31;15.50;99.90
34985;DHT22;21190;58.750;17.004;2022-08-21T05:09:01;15.50;99.90
34985;DHT22;21190;58.750;17.004;2022-08-21T05:11:29;15.60;99.90
34985;DHT22;21190;58.750;17.004;2022-08-21T05:13:56;15.60;99.90
34985;DHT22;21190;58.750;17.004;2022-08-21T05:16:23;15.70;99.90
34985;DHT22;21190;58.750;17.004;2022-08-21T05:19:03;15.80;99.90
34985;DHT22;21190;58.750;17.004;2022-08-21T05:21:30;15.80;99.90
34985;DHT22;21190;58.750;17.004;2022-08-21T05:23:59;15.90;99.90
34985;DHT22;21190;58.750;17.004;2022-08-21T05:26:27;15.90;99.90
34985;DHT22;21190;58.750;17.004;2022-08-21T05:28:53;15.90;99.90
34985;DHT22;21190;58.750;17.004;2022-08-21T05:31:22;16.00;99.90
34985;DHT22;21190;58.750;17.004;2022-08-21T05:33:50;16.10;99.90
34985;DHT22;21190;58.750;17.004;2022-08-21T05:36:18;16.10;99.90
34985;DHT22;21190;58.750;17.004;2022-08-21T05:38:45;16.20;99.90
34985;DHT22;21190;58.750;17.004;2022-08-21T05:41:12;16.20;99.90
34985;DHT22;21190;58.750;17.004;2022-08-21T05:43:39;16.30;99.90
34985;DHT22;21190;58.750;17.004;2022-08-21T05:46:06;16.30;99.90
34985;DHT22;21190;58.750;17.004;2022-08-21T05:48:34;16.30;99.90
34985;DHT22;21190;58.750;17.004;2022-08-21T05:51:05;16.30;99.90
34985;DHT22;21190;58.750;17.004;2022-08-21T05:53:32;16.30;99.90
34985;DHT22;21190;58.750;17.004;2022-08-21T05:55:59;16.30;99.90
34985;DHT22;21190;58.750;17.004;2022-08-21T05:58:26;16.40;99.90
34985;DHT22;21190;58.750;17.004;2022-08-21T06:00:52;16.40;99.90
34985;DHT22;21190;58.750;17.004;2022-08-21T06:03:21;16.30;99.90
34985;DHT22;21190;58.750;17.004;2022-08-21T06:05:49;16.30;99.90
34985;DHT22;21190;58.750;17.004;2022-08-21T06:08:17;16.20;99.90
34985;DHT22;21190;58.750;17.004;2022-08-21T06:10:44;16.20;99.90
34985;DHT22;21190;58.750;17.004;2022-08-21T06:13:11;16.20;99.90
34985;DHT22;21190;58.750;17.004;2022-08-21T06:15:39;16.20;99.90
34985;DHT22;21190;58.750;17.004;2022-08-21T06:18:05;16.30;99.90
34985;DHT22;21190;58.750;17.004;2022-08-21T06:20:33;16.40;99.90
34985;DHT22;21190;58.750;17.004;2022-08-21T06:23:00;16.40;99.90
34985;DHT22;21190;58.750;17.004;2022-08-21T06:25:28;16.40;99.90
34985;DHT22;21190;58.750;17.004;2022-08-21T06:28:05;16.50;99.90
34985;DHT22;21190;58.750;17.004;2022-08-21T06:30:32;16.50;99.90
34985;DHT22;21190;58.750;17.004;2022-08-21T06:32:59;16.50;99.90
34985;DHT22;21190;58.750;17.004;2022-08-21T06:35:26;16.50;99.90
34985;DHT22;21190;58.750;17.004;2022-08-21T06:37:56;16.60;99.90
34985;DHT22;21190;58.750;17.004;2022-08-21T06:40:23;16.60;99.90
34985;DHT22;21190;58.750;17.004;2022-08-21T06:42:51;16.60;99.90
34985;DHT22;21190;58.750;17.004;2022-08-21T06:45:17;16.70;99.90
34985;DHT22;21190;58.750;17.004;2022-08-21T06:47:44;16.70;99.90
34985;DHT22;21190;58.750;17.004;2022-08-21T06:50:11;16.70;99.90
34985;DHT22;21190;58.750;17.004;2022-08-21T06:52:39;16.80;99.90
34985;DHT22;21190;58.750;17.004;2022-08-21T06:55:07;16.70;99.90
34985;DHT22;21190;58.750;17.004;2022-08-21T06:57:35;16.80;99.90
34985;DHT22;21190;58.750;17.004;2022-08-21T07:00:06;16.80;99.90
34985;DHT22;21190;58.750;17.004;2022-08-21T07:02:33;16.80;99.90
34985;DHT22;21190;58.750;17.004;2022-08-21T07:05:00;16.80;99.90
34985;DHT22;21190;58.750;17.004;2022-08-21T07:07:43;16.80;99.90
34985;DHT22;21190;58.750;17.004;2022-08-21T07:10:10;16.90;99.90
34985;DHT22;21190;58.750;17.004;2022-08-21T07:12:48;16.90;99.90
34985;DHT22;21190;58.750;17.004;2022-08-21T07:15:17;16.90;99.90
34985;DHT22;21190;58.750;17.004;2022-08-21T07:17:44;17.00;99.90
34985;DHT22;21190;58.750;17.004;2022-08-21T07:20:11;17.00;99.90
34985;DHT22;21190;58.750;17.004;2022-08-21T07:22:38;17.00;99.90
34985;DHT22;21190;58.750;17.004;2022-08-21T07:25:07;17.00;99.90
34985;DHT22;21190;58.750;17.004;2022-08-21T07:27:34;17.10;99.90
34985;DHT22;21190;58.750;17.004;2022-08-21T07:30:01;17.10;99.90
34985;DHT22;21190;58.750;17.004;2022-08-21T07:32:28;17.10;99.90
34985;DHT22;21190;58.750;17.004;2022-08-21T07:34:55;17.20;99.90
34985;DHT22;21190;58.750;17.004;2022-08-21T07:37:21;17.30;99.90
34985;DHT22;21190;58.750;17.004;2022-08-21T07:39:48;17.30;99.90
34985;DHT22;21190;58.750;17.004;2022-08-21T07:42:16;17.40;99.90
34985;DHT22;21190;58.750;17.004;2022-08-21T07:44:43;17.50;99.90
34985;DHT22;21190;58.750;17.004;2022-08-21T07:47:10;17.50;99.90
34985;DHT22;21190;58.750;17.004;2022-08-21T07:49:37;17.60;99.90
34985;DHT22;21190;58.750;17.004;2022-08-21T07:52:04;17.60;99.90
34985;DHT22;21190;58.750;17.004;2022-08-21T07:54:31;17.60;99.90
34985;DHT22;21190;58.750;17.004;2022-08-21T07:56:59;17.70;99.90
34985;DHT22;21190;58.750;17.004;2022-08-21T07:59:26;17.80;99.90
34985;DHT22;21190;58.750;17.004;2022-08-21T08:01:53;17.80;99.90
34985;DHT22;21190;58.750;17.004;2022-08-21T08:04:20;17.90;99.90
34985;DHT22;21190;58.750;17.004;2022-08-21T08:06:53;17.90;99.90
34985;DHT22;21190;58.750;17.004;2022-08-21T08:09:20;17.90;99.90
34985;DHT22;21190;58.750;17.004;2022-08-21T08:11:47;18.00;99.90
34985;DHT22;21190;58.750;17.004;2022-08-21T08:14:14;18.00;99.90
34985;DHT22;21190;58.750;17.004;2022-08-21T08:16:42;18.10;99.90
34985;DHT22;21190;58.750;17.004;2022-08-21T08:19:09;18.10;99.90
34985;DHT22;21190;58.750;17.004;2022-08-21T08:21:35;18.10;99.90
34985;DHT22;21190;58.750;17.004;2022-08-21T08:24:04;18.10;99.90
34985;DHT22;21190;58.750;17.004;2022-08-21T08:26:45;18.20;99.90
34985;DHT22;21190;58.750;17.004;2022-08-21T08:29:20;18.20;99.90
34985;DHT22;21190;58.750;17.004;2022-08-21T08:31:47;18.30;99.90
34985;DHT22;21190;58.750;17.004;2022-08-21T08:34:14;18.30;99.90
34985;DHT22;21190;58.750;17.004;2022-08-21T08:36:51;18.30;99.90
34985;DHT22;21190;58.750;17.004;2022-08-21T08:39:18;18.30;99.90
34985;DHT22;21190;58.750;17.004;2022-08-21T08:42:01;18.40;99.90
34985;DHT22;21190;58.750;17.004;2022-08-21T08:44:54;18.50;99.90
34985;DHT22;21190;58.750;17.004;2022-08-21T08:47:22;18.60;99.90
34985;DHT22;21190;58.750;17.004;2022-08-21T08:50:09;18.60;99.90
34985;DHT22;21190;58.750;17.004;2022-08-21T08:52:42;18.50;99.90
34985;DHT22;21190;58.750;17.004;2022-08-21T08:55:12;18.60;99.90
34985;DHT22;21190;58.750;17.004;2022-08-21T08:57:42;18.70;99.90
34985;DHT22;21190;58.750;17.004;2022-08-21T09:00:15;18.70;99.90
34985;DHT22;21190;58.750;17.004;2022-08-21T09:02:43;18.80;99.90
34985;DHT22;21190;58.750;17.004;2022-08-21T09:05:21;18.90;99.90
34985;DHT22;21190;58.750;17.004;2022-08-21T09:10:23;18.90;99.90
34985;DHT22;21190;58.750;17.004;2022-08-21T09:18:16;19.00;99.90
34985;DHT22;21190;58.750;17.004;2022-08-21T09:20:58;19.00;99.90
34985;DHT22;21190;58.750;17.004;2022-08-21T09:23:36;19.20;99.90
34985;DHT22;21190;58.750;17.004;2022-08-21T09:26:14;19.20;99.90
34985;DHT22;21190;58.750;17.004;2022-08-21T09:28:42;19.30;99.90
34985;DHT22;21190;58.750;17.004;2022-08-21T09:31:32;19.30;99.90
34985;DHT22;21190;58.750;17.004;2022-08-21T09:33:57;19.40;99.90
34985;DHT22;21190;58.750;17.004;2022-08-21T09:36:25;19.50;99.90
34985;DHT22;21190;58.750;17.004;2022-08-21T09:38:53;19.50;99.90
34985;DHT22;21190;58.750;17.004;2022-08-21T09:41:26;19.60;99.90
34985;DHT22;21190;58.750;17.004;2022-08-21T09:43:53;19.70;99.90
34985;DHT22;21190;58.750;17.004;2022-08-21T09:46:22;19.70;99.90
34985;DHT22;21190;58.750;17.004;2022-08-21T09:48:50;19.80;99.90
34985;DHT22;21190;58.750;17.004;2022-08-21T09:51:19;19.80;99.90
34985;DHT22;21190;58.750;17.004;2022-08-21T09:53:48;19.90;99.90
34985;DHT22;21190;58.750;17.004;2022-08-21T09:56:25;20.00;99.90
34985;DHT22;21190;58.750;17.004;2022-08-21T09:59:17;20.10;99.90
34985;DHT22;21190;58.750;17.004;2022-08-21T10:01:47;20.20;99.90
34985;DHT22;21190;58.750;17.004;2022-08-21T10:04:14;20.20;99.90
34985;DHT22;21190;58.750;17.004;2022-08-21T10:06:41;20.20;99.90
34985;DHT22;21190;58.750;17.004;2022-08-21T10:09:12;20.30;99.90
34985;DHT22;21190;58.750;17.004;2022-08-21T10:11:52;20.40;99.90
34985;DHT22;21190;58.750;17.004;2022-08-21T10:17:16;20.40;99.90
34985;DHT22;21190;58.750;17.004;2022-08-21T10:19:50;20.50;99.90
34985;DHT22;21190;58.750;17.004;2022-08-21T10:30:03;20.70;99.90
34985;DHT22;21190;58.750;17.004;2022-08-21T10:35:06;20.70;99.90
34985;DHT22;21190;58.750;17.004;2022-08-21T10:48:25;21.00;99.90
34985;DHT22;21190;58.750;17.004;2022-08-21T10:50:57;21.20;99.90
34985;DHT22;21190;58.750;17.004;2022-08-21T10:53:30;21.10;99.90
34985;DHT22;21190;58.750;17.004;2022-08-21T11:01:13;21.10;99.90
34985;DHT22;21190;58.750;17.004;2022-08-21T11:03:46;21.10;99.90
34985;DHT22;21190;58.750;17.004;2022-08-21T11:06:19;21.00;99.90
34985;DHT22;21190;58.750;17.004;2022-08-21T11:08:51;21.00;99.90
34985;DHT22;21190;58.750;17.004;2022-08-21T11:11:31;21.10;99.90
34985;DHT22;21190;58.750;17.004;2022-08-21T11:14:03;21.10;99.90
34985;DHT22;21190;58.750;17.004;2022-08-21T11:16:39;21.10;99.90
34985;DHT22;21190;58.750;17.004;2022-08-21T11:19:11;21.10;99.90
34985;DHT22;21190;58.750;17.004;2022-08-21T11:21:45;21.20;99.90
34985;DHT22;21190;58.750;17.004;2022-08-21T11:24:21;21.30;99.90
34985;DHT22;21190;58.750;17.004;2022-08-21T11:26:51;21.20;99.90
34985;DHT22;21190;58.750;17.004;2022-08-21T11:29:35;21.40;99.90
34985;DHT22;21190;58.750;17.004;2022-08-21T11:32:16;21.30;99.90
34985;DHT22;21190;58.750;17.004;2022-08-21T11:35:07;21.40;99.90
34985;DHT22;21190;58.750;17.004;2022-08-21T11:37:58;21.70;99.90
34985;DHT22;21190;58.750;17.004;2022-08-21T11:45:53;21.60;99.90
34985;DHT22;21190;58.750;17.004;2022-08-21T11:51:11;21.70;99.90
34985;DHT22;21190;58.750;17.004;2022-08-21T11:54:25;21.60;99.90
34985;DHT22;21190;58.750;17.004;2022-08-21T11:56:34;21.80;99.90
34985;DHT22;21190;58.750;17.004;2022-08-21T11:59:05;21.90;99.90
34985;DHT22;21190;58.750;17.004;2022-08-21T12:01:34;21.80;99.90
34985;DHT22;21190;58.750;17.004;2022-08-21T12:04:06;21.70;99.90
34985;DHT22;21190;58.750;17.004;2022-08-21T12:06:35;21.80;99.90
34985;DHT22;21190;58.750;17.004;2022-08-21T12:09:07;21.80;99.90
34985;DHT22;21190;58.750;17.004;2022-08-21T12:11:48;21.90;99.90
34985;DHT22;21190;58.750;17.004;2022-08-21T12:14:16;22.10;99.90
34985;DHT22;21190;58.750;17.004;2022-08-21T12:16:48;22.00;99.90
34985;DHT22;21190;58.750;17.004;2022-08-21T12:26:54;21.90;99.90
34985;DHT22;21190;58.750;17.004;2022-08-21T12:29:28;21.90;99.90
34985;DHT22;21190;58.750;17.004;2022-08-21T12:32:01;22.00;99.90
34985;DHT22;21190;58.750;17.004;2022-08-21T12:34:38;22.10;99.90
34985;DHT22;21190;58.750;17.004;2022-08-21T12:37:16;22.20;99.90
34985;DHT22;21190;58.750;17.004;2022-08-21T12:39:46;22.20;99.90
34985;DHT22;21190;58.750;17.004;2022-08-21T12:42:19;22.50;99.90
34985;DHT22;21190;58.750;17.004;2022-08-21T12:44:50;22.70;99.90
34985;DHT22;21190;58.750;17.004;2022-08-21T12:47:29;22.60;99.90
34985;DHT22;21190;58.750;17.004;2022-08-21T12:50:05;22.40;99.90
34985;DHT22;21190;58.750;17.004;2022-08-21T12:52:35;22.30;99.90
34985;DHT22;21190;58.750;17.004;2022-08-21T12:55:05;22.30;99.90
34985;DHT22;21190;58.750;17.004;2022-08-21T12:57:35;22.40;99.90
34985;DHT22;21190;58.750;17.004;2022-08-21T13:00:04;22.50;99.90
34985;DHT22;21190;58.750;17.004;2022-08-21T13:02:35;22.50;99.90
34985;DHT22;21190;58.750;17.004;2022-08-21T13:05:05;22.70;99.90
34985;DHT22;21190;58.750;17.004;2022-08-21T13:07:34;22.70;99.90
34985;DHT22;21190;58.750;17.004;2022-08-21T13:10:06;22.90;99.90
34985;DHT22;21190;58.750;17.004;2022-08-21T13:12:34;23.00;99.90
34985;DHT22;21190;58.750;17.004;2022-08-21T13:15:04;23.00;99.90
34985;DHT22;21190;58.750;17.004;2022-08-21T13:17:36;23.10;99.90
34985;DHT22;21190;58.750;17.004;2022-08-21T13:20:06;23.10;99.90
34985;DHT22;21190;58.750;17.004;2022-08-21T13:22:39;23.10;99.90
34985;DHT22;21190;58.750;17.004;2022-08-21T13:25:14;23.10;99.90
34985;DHT22;21190;58.750;17.004;2022-08-21T13:27:42;23.10;99.90
34985;DHT22;21190;58.750;17.004;2022-08-21T13:30:17;23.10;99.90
34985;DHT22;21190;58.750;17.004;2022-08-21T13:32:45;23.10;99.90
34985;DHT22;21190;58.750;17.004;2022-08-21T13:35:19;23.10;99.90
34985;DHT22;21190;58.750;17.004;2022-08-21T13:37:48;23.10;99.90
34985;DHT22;21190;58.750;17.004;2022-08-21T13:40:20;23.20;99.90
34985;DHT22;21190;58.750;17.004;2022-08-21T13:42:50;23.30;99.90
34985;DHT22;21190;58.750;17.004;2022-08-21T13:45:21;23.30;99.90
34985;DHT22;21190;58.750;17.004;2022-08-21T13:47:48;23.30;99.90
34985;DHT22;21190;58.750;17.004;2022-08-21T13:50:16;23.40;99.90
34985;DHT22;21190;58.750;17.004;2022-08-21T13:52:46;23.40;99.50
34985;DHT22;21190;58.750;17.004;2022-08-21T13:55:15;23.50;99.30
34985;DHT22;21190;58.750;17.004;2022-08-21T13:57:42;23.50;98.90
34985;DHT22;21190;58.750;17.004;2022-08-21T14:00:19;23.70;99.70
34985;DHT22;21190;58.750;17.004;2022-08-21T14:02:49;23.80;97.60
34985;DHT22;21190;58.750;17.004;2022-08-21T14:05:19;23.90;97.70
34985;DHT22;21190;58.750;17.004;2022-08-21T14:07:47;23.80;98.00
34985;DHT22;21190;58.750;17.004;2022-08-21T14:10:20;23.80;98.40
34985;DHT22;21190;58.750;17.004;2022-08-21T14:12:49;23.80;98.90
34985;DHT22;21190;58.750;17.004;2022-08-21T14:15:18;23.90;97.90
34985;DHT22;21190;58.750;17.004;2022-08-21T14:17:45;23.80;97.90
34985;DHT22;21190;58.750;17.004;2022-08-21T14:20:25;23.90;97.90
34985;DHT22;21190;58.750;17.004;2022-08-21T14:22:52;23.90;98.70
34985;DHT22;21190;58.750;17.004;2022-08-21T14:28:03;24.00;97.00
34985;DHT22;21190;58.750;17.004;2022-08-21T14:30:36;23.90;96.50
34985;DHT22;21190;58.750;17.004;2022-08-21T14:33:04;24.00;96.10
34985;DHT22;21190;58.750;17.004;2022-08-21T14:35:34;24.00;95.70
34985;DHT22;21190;58.750;17.004;2022-08-21T14:38:01;24.00;95.90
34985;DHT22;21190;58.750;17.004;2022-08-21T14:40:27;24.10;94.80
34985;DHT22;21190;58.750;17.004;2022-08-21T14:42:54;24.10;93.10
34985;DHT22;21190;58.750;17.004;2022-08-21T14:47:53;24.00;94.60
34985;DHT22;21190;58.750;17.004;2022-08-21T14:50:20;24.10;94.20
34985;DHT22;21190;58.750;17.004;2022-08-21T14:52:47;24.20;94.20
34985;DHT22;21190;58.750;17.004;2022-08-21T14:55:16;24.20;92.80
34985;DHT22;21190;58.750;17.004;2022-08-21T14:57:47;24.10;92.40
34985;DHT22;21190;58.750;17.004;2022-08-21T15:00:16;24.10;92.60
34985;DHT22;21190;58.750;17.004;2022-08-21T15:02:44;24.00;93.10
34985;DHT22;21190;58.750;17.004;2022-08-21T15:05:11;24.00;93.20
34985;DHT22;21190;58.750;17.004;2022-08-21T15:07:39;24.10;92.80
34985;DHT22;21190;58.750;17.004;2022-08-21T15:10:06;24.00;93.50
34985;DHT22;21190;58.750;17.004;2022-08-21T15:12:35;23.90;93.10
34985;DHT22;21190;58.750;17.004;2022-08-21T15:15:04;23.80;93.60
34985;DHT22;21190;58.750;17.004;2022-08-21T15:17:31;23.50;92.80
34985;DHT22;21190;58.750;17.004;2022-08-21T15:19:58;23.40;93.10
34985;DHT22;21190;58.750;17.004;2022-08-21T15:22:26;23.30;93.80
34985;DHT22;21190;58.750;17.004;2022-08-21T15:24:54;23.20;94.00
34985;DHT22;21190;58.750;17.004;2022-08-21T15:27:20;23.10;94.40
34985;DHT22;21190;58.750;17.004;2022-08-21T15:29:47;23.10;94.60
34985;DHT22;21190;58.750;17.004;2022-08-21T15:32:22;23.00;94.80
34985;DHT22;21190;58.750;17.004;2022-08-21T15:34:52;22.90;95.10
34985;DHT22;21190;58.750;17.004;2022-08-21T15:37:20;22.90;95.50
34985;DHT22;21190;58.750;17.004;2022-08-21T15:39:48;22.80;95.70
34985;DHT22;21190;58.750;17.004;2022-08-21T15:42:20;22.80;95.60
34985;DHT22;21190;58.750;17.004;2022-08-21T15:44:47;22.80;95.50
34985;DHT22;21190;58.750;17.004;2022-08-21T15:47:15;22.80;96.30
34985;DHT22;21190;58.750;17.004;2022-08-21T15:49:43;22.80;96.10
34985;DHT22;21190;58.750;17.004;2022-08-21T15:52:18;22.80;96.10
34985;DHT22;21190;58.750;17.004;2022-08-21T15:54:45;22.80;96.00
34985;DHT22;21190;58.750;17.004;2022-08-21T15:57:20;22.80;96.00
34985;DHT22;21190;58.750;17.004;2022-08-21T15:59:49;22.90;96.00
34985;DHT22;21190;58.750;17.004;2022-08-21T16:02:17;22.80;96.00
34985;DHT22;21190;58.750;17.004;2022-08-21T16:04:45;22.80;96.10
34985;DHT22;21190;58.750;17.004;2022-08-21T16:07:12;22.80;96.40
34985;DHT22;21190;58.750;17.004;2022-08-21T16:09:39;22.80;96.50
34985;DHT22;21190;58.750;17.004;2022-08-21T16:12:06;22.70;97.20
34985;DHT22;21190;58.750;17.004;2022-08-21T16:14:33;22.70;97.50
34985;DHT22;21190;58.750;17.004;2022-08-21T16:17:06;22.70;97.70
34985;DHT22;21190;58.750;17.004;2022-08-21T16:19:33;22.70;97.80
34985;DHT22;21190;58.750;17.004;2022-08-21T16:22:00;22.70;97.00
34985;DHT22;21190;58.750;17.004;2022-08-21T16:24:27;22.70;97.50
34985;DHT22;21190;58.750;17.004;2022-08-21T16:26:54;22.60;97.90
34985;DHT22;21190;58.750;17.004;2022-08-21T16:29:24;22.70;99.90